Time;durP1;ratioP1;P1;durP2;ratioP2;P2;SDS_P1;SDS_P2;PMS_P1;PMS_P2;Temp;Humidity;BMP_temperature;BMP_pressure;BME280_temperature;BME280_humidity;BME280_pressure;Samples;Min_cycle;Max_cycle;Signal;HPM_P1;HPM_P2
2021/08/10 00:03:25;;;;;;;6.10;3.03;;;;;;;;;;10468615;28;20200;-71
2021/08/10 00:08:28;;;;;;;5.97;3.00;;;;;;;;;;10477238;28;20215;-73
2021/08/10 00:13:30;;;;;;;6.73;3.20;;;;;;;;;;10480246;28;20225;-75
2021/08/10 00:18:34;;;;;;;6.63;3.03;;;;;;;;;;10478274;28;20300;-74
2021/08/10 00:23:37;;;;;;;6.10;3.00;;;;;;;;;;10476189;28;20202;-74
2021/08/10 00:28:40;;;;;;;7.00;3.00;;;;;;;;;;10468724;28;20296;-75
2021/08/10 00:33:43;;;;;;;6.67;3.07;;;;;;;;;;10476613;28;20661;-73
2021/08/10 00:38:46;;;;;;;7.17;3.33;;;;;;;;;;10484593;28;20668;-75
2021/08/10 00:43:49;;;;;;;5.53;3.00;;;;;;;;;;10475531;28;20621;-75
2021/08/10 00:48:53;;;;;;;6.73;3.30;;;;;;;;;;10466455;28;20263;-74
2021/08/10 00:53:56;;;;;;;6.03;3.13;;;;;;;;;;10477902;28;20525;-75
2021/08/10 00:58:59;;;;;;;7.47;3.63;;;;;;;;;;10476660;28;20256;-75
2021/08/10 01:04:03;;;;;;;7.07;3.33;;;;;;;;;;10480555;28;20561;-75
2021/08/10 01:09:08;;;;;;;7.00;3.57;;;;;;;;;;10481164;28;20255;-74
2021/08/10 01:14:13;;;;;;;7.53;3.63;;;;;;;;;;10479705;28;20545;-75
2021/08/10 01:19:35;;;;;;;7.17;3.57;;;;;;;;;;10470824;28;20255;-72
2021/08/10 01:24:40;;;;;;;7.40;3.60;;;;;;;;;;10472561;28;20189;-75
2021/08/10 01:29:47;;;;;;;8.60;3.70;;;;;;;;;;10489580;28;20603;-74
2021/08/10 01:34:52;;;;;;;6.50;3.53;;;;;;;;;;10471663;28;20229;-73
2021/08/10 01:39:56;;;;;;;6.77;3.47;;;;;;;;;;10477590;28;20229;-73
2021/08/10 01:45:01;;;;;;;8.50;3.40;;;;;;;;;;10469399;28;20389;-73
2021/08/10 01:50:06;;;;;;;5.83;3.20;;;;;;;;;;10477447;28;20213;-74
2021/08/10 01:55:09;;;;;;;8.17;3.10;;;;;;;;;;10489924;28;20200;-74
2021/08/10 02:00:12;;;;;;;6.27;2.87;;;;;;;;;;10471855;28;20209;-74
2021/08/10 02:05:16;;;;;;;6.63;3.60;;;;;;;;;;10471496;28;20246;-73
2021/08/10 02:10:19;;;;;;;7.00;3.17;;;;;;;;;;10476573;28;20290;-73
2021/08/10 02:15:21;;;;;;;6.47;2.93;;;;;;;;;;10476664;28;20633;-74
2021/08/10 02:20:26;;;;;;;6.27;3.13;;;;;;;;;;10468066;28;20310;-73
2021/08/10 02:25:29;;;;;;;7.97;3.17;;;;;;;;;;10464415;28;20200;-72
2021/08/10 02:30:32;;;;;;;6.23;3.03;;;;;;;;;;10477227;28;20746;-72
2021/08/10 02:35:36;;;;;;;6.40;2.97;;;;;;;;;;10482459;28;20300;-74
2021/08/10 02:40:39;;;;;;;7.93;3.03;;;;;;;;;;10472493;28;20311;-74
2021/08/10 02:45:42;;;;;;;5.57;2.90;;;;;;;;;;10479307;28;20196;-73
2021/08/10 02:50:47;;;;;;;8.30;3.13;;;;;;;;;;10474677;28;20287;-74
2021/08/10 02:55:52;;;;;;;8.60;3.20;;;;;;;;;;10474446;28;20214;-72
2021/08/10 03:00:57;;;;;;;5.00;2.90;;;;;;;;;;10494465;28;20631;-74
2021/08/10 03:06:02;;;;;;;8.30;3.23;;;;;;;;;;10472933;28;20217;-73
2021/08/10 03:11:07;;;;;;;5.60;2.90;;;;;;;;;;10470222;28;20240;-75
2021/08/10 03:16:11;;;;;;;5.03;2.60;;;;;;;;;;10466877;28;20506;-74
2021/08/10 03:21:15;;;;;;;6.07;2.80;;;;;;;;;;10479790;28;20200;-72
2021/08/10 03:26:20;;;;;;;6.93;2.70;;;;;;;;;;10472482;28;20272;-73
2021/08/10 03:31:23;;;;;;;6.07;2.70;;;;;;;;;;10474157;28;20224;-72
2021/08/10 03:36:28;;;;;;;5.43;2.73;;;;;;;;;;10478799;28;20223;-73
2021/08/10 03:41:30;;;;;;;5.27;2.50;;;;;;;;;;10476654;28;20243;-72
2021/08/10 03:46:33;;;;;;;5.83;2.67;;;;;;;;;;10475302;28;20189;-73
2021/08/10 03:51:37;;;;;;;5.27;2.80;;;;;;;;;;10489599;28;20314;-74
2021/08/10 03:56:40;;;;;;;4.57;2.30;;;;;;;;;;10467986;28;20271;-75
2021/08/10 04:01:43;;;;;;;6.03;2.70;;;;;;;;;;10481280;28;20613;-72
2021/08/10 04:06:47;;;;;;;4.83;2.67;;;;;;;;;;10479277;28;20197;-74
2021/08/10 04:11:49;;;;;;;4.43;2.47;;;;;;;;;;10491654;28;20247;-74
2021/08/10 04:16:54;;;;;;;5.80;2.50;;;;;;;;;;10475687;28;20220;-74
2021/08/10 04:21:58;;;;;;;5.93;3.00;;;;;;;;;;10481429;28;20242;-74
2021/08/10 04:27:01;;;;;;;6.27;2.43;;;;;;;;;;10476666;28;20561;-74
2021/08/10 04:32:04;;;;;;;7.13;2.80;;;;;;;;;;10474849;28;20216;-72
2021/08/10 04:37:07;;;;;;;5.97;2.90;;;;;;;;;;10490422;28;20759;-71
2021/08/10 04:42:10;;;;;;;6.10;2.80;;;;;;;;;;10476105;28;20239;-73
2021/08/10 04:47:12;;;;;;;7.37;2.70;;;;;;;;;;10479513;28;20192;-74
2021/08/10 04:52:16;;;;;;;7.23;3.10;;;;;;;;;;10474755;28;20212;-73
2021/08/10 04:57:19;;;;;;;6.73;2.80;;;;;;;;;;10470769;28;20288;-73
2021/08/10 05:02:21;;;;;;;7.93;3.30;;;;;;;;;;10480559;28;20288;-72
2021/08/10 05:07:25;;;;;;;7.03;2.90;;;;;;;;;;10475409;28;20193;-74
2021/08/10 05:12:28;;;;;;;6.30;3.07;;;;;;;;;;10485500;28;20200;-73
2021/08/10 05:17:30;;;;;;;7.17;3.10;;;;;;;;;;10485271;28;20248;-74
2021/08/10 05:22:35;;;;;;;6.20;2.90;;;;;;;;;;10467555;28;20292;-73
2021/08/10 05:27:38;;;;;;;10.23;3.40;;;;;;;;;;10473864;28;20291;-74
2021/08/10 05:32:40;;;;;;;7.27;3.00;;;;;;;;;;10479998;28;20188;-72
2021/08/10 05:38:01;;;;;;;7.57;3.10;;;;;;;;;;10479686;28;20302;-70
2021/08/10 05:43:03;;;;;;;5.33;2.50;;;;;;;;;;10483268;28;20200;-71
2021/08/10 05:48:06;;;;;;;7.27;2.70;;;;;;;;;;10486738;28;20691;-72
2021/08/10 05:53:10;;;;;;;8.27;3.40;;;;;;;;;;10474402;28;20228;-71
2021/08/10 05:58:13;;;;;;;7.77;2.90;;;;;;;;;;10478017;28;20227;-71
2021/08/10 06:03:16;;;;;;;6.50;2.67;;;;;;;;;;10478794;28;20287;-70
2021/08/10 06:08:20;;;;;;;7.13;2.90;;;;;;;;;;10473012;28;20205;-71
2021/08/10 06:13:22;;;;;;;5.80;2.70;;;;;;;;;;10459668;28;20230;-71
2021/08/10 06:18:25;;;;;;;7.77;3.00;;;;;;;;;;10478229;28;20301;-71
2021/08/10 06:23:29;;;;;;;6.03;2.60;;;;;;;;;;10474220;28;20188;-73
2021/08/10 06:28:31;;;;;;;7.50;2.60;;;;;;;;;;10468609;28;20649;-72
2021/08/10 06:33:34;;;;;;;6.50;3.03;;;;;;;;;;10469497;28;20235;-73
2021/08/10 06:38:38;;;;;;;7.03;2.87;;;;;;;;;;10469575;28;20224;-71
2021/08/10 06:43:41;;;;;;;4.80;2.37;;;;;;;;;;10468378;28;20220;-72
2021/08/10 06:48:43;;;;;;;7.80;2.80;;;;;;;;;;10477775;28;20212;-71
2021/08/10 06:53:47;;;;;;;7.37;2.50;;;;;;;;;;10460010;28;20192;-72
2021/08/10 06:58:50;;;;;;;6.53;2.60;;;;;;;;;;10463148;28;20292;-71
2021/08/10 07:03:57;;;;;;;6.20;2.40;;;;;;;;;;10477653;28;20222;-73
2021/08/10 07:09:05;;;;;;;8.30;2.80;;;;;;;;;;10453737;28;20292;-73
2021/08/10 07:14:11;;;;;;;6.83;2.67;;;;;;;;;;10454092;28;20204;-72
2021/08/10 07:19:14;;;;;;;7.03;2.90;;;;;;;;;;10459799;28;20837;-73
2021/08/10 07:24:19;;;;;;;5.90;2.53;;;;;;;;;;10467641;28;20193;-72
2021/08/10 07:29:22;;;;;;;7.18;2.53;;;;;;;;;;10461843;28;20212;-71
2021/08/10 07:34:24;;;;;;;6.63;2.50;;;;;;;;;;10460991;28;20234;-72
2021/08/10 07:39:48;;;;;;;5.03;2.20;;;;;;;;;;10452700;28;20212;-71
2021/08/10 07:44:50;;;;;;;5.82;2.50;;;;;;;;;;10454847;28;20217;-72
2021/08/10 07:49:53;;;;;;;5.25;2.30;;;;;;;;;;10456584;28;22552;-73
2021/08/10 07:54:57;;;;;;;3.95;2.40;;;;;;;;;;10479402;28;20197;-73
2021/08/10 07:59:59;;;;;;;4.72;2.33;;;;;;;;;;10483327;28;20351;-74
2021/08/10 08:05:02;;;;;;;5.22;2.70;;;;;;;;;;10474302;28;20189;-73
2021/08/10 08:10:06;;;;;;;4.88;2.60;;;;;;;;;;10467543;28;20238;-74
2021/08/10 08:15:09;;;;;;;4.28;2.47;;;;;;;;;;10471898;28;20299;-75
2021/08/10 08:20:12;;;;;;;5.72;2.45;;;;;;;;;;10468907;28;20226;-74
2021/08/10 08:25:16;;;;;;;5.40;2.58;;;;;;;;;;10471667;28;20202;-74
2021/08/10 08:30:19;;;;;;;4.60;2.72;;;;;;;;;;10477715;28;20246;-73
2021/08/10 08:35:21;;;;;;;6.88;3.20;;;;;;;;;;10476973;28;20254;-71
2021/08/10 08:40:25;;;;;;;5.80;2.70;;;;;;;;;;10468682;28;20757;-74
2021/08/10 08:45:28;;;;;;;4.00;2.45;;;;;;;;;;10482807;28;20223;-73
2021/08/10 08:50:32;;;;;;;4.03;2.90;;;;;;;;;;10477136;28;20252;-74
2021/08/10 08:55:36;;;;;;;5.68;2.50;;;;;;;;;;10480236;28;20224;-75
2021/08/10 09:00:39;;;;;;;6.40;3.03;;;;;;;;;;10474866;28;20298;-75
2021/08/10 09:05:45;;;;;;;5.07;2.85;;;;;;;;;;10483908;28;20723;-74
2021/08/10 09:10:54;;;;;;;4.72;2.80;;;;;;;;;;10473358;28;20267;-74
2021/08/10 09:15:58;;;;;;;4.13;2.90;;;;;;;;;;10478198;28;20201;-74
2021/08/10 09:21:03;;;;;;;5.00;2.60;;;;;;;;;;10476801;28;20279;-74
2021/08/10 09:26:07;;;;;;;5.45;3.13;;;;;;;;;;10478113;28;20405;-74
2021/08/10 09:31:29;;;;;;;5.03;2.90;;;;;;;;;;10475582;28;20551;-74
2021/08/10 09:36:31;;;;;;;4.78;2.97;;;;;;;;;;10485542;28;20188;-73
2021/08/10 09:41:35;;;;;;;5.18;2.92;;;;;;;;;;10454033;28;20240;-73
2021/08/10 09:46:39;;;;;;;4.88;2.92;;;;;;;;;;10457713;28;20199;-74
2021/08/10 09:51:43;;;;;;;4.78;2.90;;;;;;;;;;10461519;28;20218;-73
2021/08/10 09:56:51;;;;;;;5.40;3.75;;;;;;;;;;10464805;28;20219;-71
2021/08/10 10:01:56;;;;;;;4.88;3.25;;;;;;;;;;10476079;28;20222;-73
2021/08/10 10:06:59;;;;;;;4.97;3.22;;;;;;;;;;10470298;28;20266;-73
2021/08/10 10:12:04;;;;;;;4.25;3.00;;;;;;;;;;10479022;28;20226;-74
2021/08/10 10:17:08;;;;;;;5.35;3.00;;;;;;;;;;10477732;28;20211;-73
2021/08/10 10:22:16;;;;;;;5.05;3.35;;;;;;;;;;10484047;28;20207;-73
2021/08/10 10:27:21;;;;;;;5.57;3.50;;;;;;;;;;10472977;28;20247;-72
2021/08/10 10:32:24;;;;;;;4.25;3.40;;;;;;;;;;10481949;28;20208;-73
2021/08/10 10:37:27;;;;;;;4.55;2.97;;;;;;;;;;10477470;28;20307;-73
2021/08/10 10:42:32;;;;;;;5.28;3.15;;;;;;;;;;10467912;28;20227;-74
2021/08/10 10:47:38;;;;;;;3.95;2.83;;;;;;;;;;10462926;28;20261;-73
2021/08/10 10:52:46;;;;;;;4.82;3.00;;;;;;;;;;10476791;28;20261;-72
2021/08/10 10:57:50;;;;;;;4.82;3.25;;;;;;;;;;10468866;28;20306;-73
2021/08/10 11:03:09;;;;;;;4.75;3.00;;;;;;;;;;10481222;28;20189;-73
2021/08/10 11:08:27;;;;;;;4.57;3.35;;;;;;;;;;10481707;28;20654;-73
2021/08/10 11:13:35;;;;;;;4.70;3.10;;;;;;;;;;10477564;28;20223;-73
2021/08/10 11:18:38;;;;;;;4.47;3.08;;;;;;;;;;10480430;28;20218;-73
2021/08/10 11:23:40;;;;;;;3.92;3.05;;;;;;;;;;10473798;28;20199;-73
2021/08/10 11:28:49;;;;;;;4.80;3.55;;;;;;;;;;10478515;28;20211;-73
2021/08/10 11:33:52;;;;;;;4.53;2.90;;;;;;;;;;10477531;28;20195;-72
2021/08/10 11:39:07;;;;;;;4.40;2.88;;;;;;;;;;10482612;28;20302;-72
2021/08/10 11:44:19;;;;;;;3.78;2.63;;;;;;;;;;10477289;28;20283;-72
2021/08/10 11:49:24;;;;;;;5.28;3.08;;;;;;;;;;10469880;28;20215;-72
2021/08/10 11:54:26;;;;;;;5.95;2.95;;;;;;;;;;10483359;28;20199;-73
2021/08/10 11:59:30;;;;;;;4.85;2.88;;;;;;;;;;10486702;28;20219;-72
2021/08/10 12:04:33;;;;;;;4.43;2.92;;;;;;;;;;10488399;28;20231;-72
2021/08/10 12:09:37;;;;;;;4.78;2.70;;;;;;;;;;10487901;28;20746;-72
2021/08/10 12:14:42;;;;;;;4.50;2.75;;;;;;;;;;10485534;28;20201;-72
2021/08/10 12:19:45;;;;;;;5.38;3.08;;;;;;;;;;10480349;28;20235;-72
2021/08/10 12:24:48;;;;;;;5.05;2.83;;;;;;;;;;10485891;28;20280;-71
2021/08/10 12:29:52;;;;;;;4.60;2.78;;;;;;;;;;10488256;28;20300;-72
2021/08/10 12:34:55;;;;;;;5.80;2.88;;;;;;;;;;10483329;28;20733;-72
2021/08/10 12:39:59;;;;;;;5.38;2.88;;;;;;;;;;10482107;28;20213;-73
2021/08/10 12:45:03;;;;;;;4.82;2.70;;;;;;;;;;10480042;28;20203;-73
2021/08/10 12:50:20;;;;;;;4.18;2.58;;;;;;;;;;10479936;28;20307;-73
2021/08/10 12:55:23;;;;;;;5.05;2.83;;;;;;;;;;10473272;28;20253;-73
2021/08/10 13:00:27;;;;;;;4.32;2.70;;;;;;;;;;10472748;28;20634;-73
2021/08/10 13:05:36;;;;;;;6.15;2.70;;;;;;;;;;10467055;28;20335;-73
2021/08/10 13:10:40;;;;;;;6.00;2.72;;;;;;;;;;10469153;28;20299;-72
2021/08/10 13:15:45;;;;;;;4.57;2.72;;;;;;;;;;10471277;28;20201;-73
2021/08/10 13:20:48;;;;;;;5.47;2.70;;;;;;;;;;10476208;28;20219;-73
2021/08/10 13:25:58;;;;;;;5.13;2.90;;;;;;;;;;10486559;28;20211;-73
2021/08/10 13:31:16;;;;;;;6.30;2.90;;;;;;;;;;10478113;28;20212;-73
2021/08/10 13:36:18;;;;;;;4.47;2.63;;;;;;;;;;10470799;28;21431;-72
2021/08/10 13:41:23;;;;;;;5.50;2.78;;;;;;;;;;10471491;28;20262;-72
2021/08/10 13:46:29;;;;;;;4.13;2.58;;;;;;;;;;10471054;28;20275;-73
2021/08/10 13:51:32;;;;;;;5.97;3.10;;;;;;;;;;10481336;28;20213;-73
2021/08/10 13:56:35;;;;;;;5.47;3.03;;;;;;;;;;10470569;28;20209;-73
2021/08/10 14:01:45;;;;;;;6.95;2.97;;;;;;;;;;10484707;28;20228;-74
2021/08/10 14:06:48;;;;;;;5.35;2.95;;;;;;;;;;10475310;28;20219;-72
2021/08/10 14:11:51;;;;;;;4.43;2.60;;;;;;;;;;10475231;28;20638;-73
2021/08/10 14:16:55;;;;;;;5.22;2.60;;;;;;;;;;10465071;28;20208;-72
2021/08/10 14:21:57;;;;;;;6.47;3.28;;;;;;;;;;10467454;28;20236;-73
2021/08/10 14:27:01;;;;;;;6.22;3.10;;;;;;;;;;10487072;28;20224;-73
2021/08/10 14:32:06;;;;;;;5.05;2.92;;;;;;;;;;10482969;28;20208;-72
2021/08/10 14:37:08;;;;;;;8.13;3.10;;;;;;;;;;10482820;28;20304;-72
2021/08/10 14:42:11;;;;;;;5.70;2.97;;;;;;;;;;10482315;28;20208;-72
2021/08/10 14:47:16;;;;;;;6.15;2.80;;;;;;;;;;10475903;28;20516;-73
2021/08/10 14:52:18;;;;;;;7.15;3.00;;;;;;;;;;10471338;28;20687;-73
2021/08/10 14:57:21;;;;;;;6.25;3.00;;;;;;;;;;10462887;28;20280;-72
2021/08/10 15:02:25;;;;;;;6.25;3.10;;;;;;;;;;10468750;28;20203;-72
2021/08/10 15:07:28;;;;;;;5.97;2.83;;;;;;;;;;10462711;28;20219;-72
2021/08/10 15:12:30;;;;;;;4.55;2.60;;;;;;;;;;10483511;28;20216;-73
2021/08/10 15:17:34;;;;;;;6.40;2.78;;;;;;;;;;10475136;28;20284;-73
2021/08/10 15:22:37;;;;;;;4.95;2.90;;;;;;;;;;10474219;28;20307;-72
2021/08/10 15:27:43;;;;;;;5.65;3.05;;;;;;;;;;10470198;28;20221;-73
2021/08/10 15:32:47;;;;;;;5.45;2.80;;;;;;;;;;10480012;28;20389;-73
2021/08/10 15:37:50;;;;;;;8.85;2.83;;;;;;;;;;10484905;28;20216;-73
2021/08/10 15:42:53;;;;;;;8.43;3.35;;;;;;;;;;10464500;28;20201;-74
2021/08/10 15:47:57;;;;;;;6.85;2.85;;;;;;;;;;10482659;28;20610;-73
2021/08/10 15:52:59;;;;;;;5.72;2.85;;;;;;;;;;10469669;28;20284;-72
2021/08/10 15:58:02;;;;;;;5.63;2.63;;;;;;;;;;10481754;28;20250;-72
2021/08/10 16:03:08;;;;;;;8.18;2.67;;;;;;;;;;10474246;28;20738;-71
2021/08/10 16:08:11;;;;;;;4.93;2.65;;;;;;;;;;10474060;28;20208;-72
2021/08/10 16:13:14;;;;;;;5.60;2.75;;;;;;;;;;10482836;28;20277;-73
2021/08/10 16:18:18;;;;;;;5.05;2.42;;;;;;;;;;10490023;28;20255;-73
2021/08/10 16:23:21;;;;;;;4.85;2.60;;;;;;;;;;10474627;28;20196;-74
2021/08/10 16:28:24;;;;;;;6.97;3.08;;;;;;;;;;10454237;28;20212;-73
2021/08/10 16:33:28;;;;;;;6.18;3.35;;;;;;;;;;10472407;28;20626;-73
2021/08/10 16:38:32;;;;;;;4.78;2.70;;;;;;;;;;10479181;28;20247;-72
2021/08/10 16:43:34;;;;;;;4.70;2.67;;;;;;;;;;10462486;28;20653;-72
2021/08/10 16:48:38;;;;;;;4.93;2.80;;;;;;;;;;10464986;28;20220;-73
2021/08/10 16:53:41;;;;;;;5.25;2.65;;;;;;;;;;10468789;28;20216;-73
2021/08/10 16:58:44;;;;;;;6.72;2.70;;;;;;;;;;10477319;28;20265;-72
2021/08/10 17:03:48;;;;;;;7.78;2.80;;;;;;;;;;10473135;28;20188;-72
2021/08/10 17:08:50;;;;;;;5.38;2.88;;;;;;;;;;10474816;28;20259;-73
2021/08/10 17:13:53;;;;;;;4.88;2.97;;;;;;;;;;10478955;28;20196;-72
2021/08/10 17:18:57;;;;;;;5.35;2.55;;;;;;;;;;10478740;28;20299;-72
2021/08/10 17:23:59;;;;;;;5.55;2.80;;;;;;;;;;10471965;28;20232;-72
2021/08/10 17:29:02;;;;;;;5.97;2.60;;;;;;;;;;10477576;28;20989;-72
2021/08/10 17:34:14;;;;;;;4.85;2.30;;;;;;;;;;10482912;28;20249;-73
2021/08/10 17:39:16;;;;;;;4.88;2.80;;;;;;;;;;10477594;28;20220;-73
2021/08/10 17:44:20;;;;;;;5.60;2.85;;;;;;;;;;10478562;28;20238;-72
2021/08/10 17:49:25;;;;;;;7.45;2.70;;;;;;;;;;10486278;28;20583;-72
2021/08/10 17:54:28;;;;;;;6.15;3.08;;;;;;;;;;10474660;28;20193;-73
2021/08/10 17:59:33;;;;;;;6.50;2.90;;;;;;;;;;10473670;28;20277;-73
2021/08/10 18:04:37;;;;;;;5.45;2.42;;;;;;;;;;10472722;28;20268;-73
2021/08/10 18:09:40;;;;;;;6.78;3.05;;;;;;;;;;10467180;28;20200;-72
2021/08/10 18:14:42;;;;;;;6.60;3.20;;;;;;;;;;10464695;28;20197;-73
2021/08/10 18:19:46;;;;;;;6.53;2.97;;;;;;;;;;10468446;28;20591;-72
2021/08/10 18:24:49;;;;;;;7.05;2.97;;;;;;;;;;10466061;28;20188;-72
2021/08/10 18:29:51;;;;;;;7.22;3.55;;;;;;;;;;10466808;28;20672;-71
2021/08/10 18:34:57;;;;;;;8.70;4.53;;;;;;;;;;10470929;28;20498;-71
2021/08/10 18:40:00;;;;;;;7.28;2.92;;;;;;;;;;10479541;28;20238;-71
2021/08/10 18:45:08;;;;;;;6.35;3.00;;;;;;;;;;10477119;28;20732;-73
2021/08/10 18:50:12;;;;;;;6.85;3.15;;;;;;;;;;10473354;28;20640;-72
2021/08/10 18:55:14;;;;;;;8.68;4.30;;;;;;;;;;10473046;28;20231;-72
2021/08/10 19:00:17;;;;;;;6.38;3.15;;;;;;;;;;10483935;28;20208;-72
2021/08/10 19:05:22;;;;;;;7.90;3.65;;;;;;;;;;10482386;28;20192;-74
2021/08/10 19:10:24;;;;;;;8.25;3.30;;;;;;;;;;10465893;28;20325;-72
2021/08/10 19:15:28;;;;;;;7.70;3.20;;;;;;;;;;10467785;28;20210;-71
2021/08/10 19:20:34;;;;;;;7.85;3.20;;;;;;;;;;10473877;28;20311;-73
2021/08/10 19:25:37;;;;;;;7.78;3.33;;;;;;;;;;10482212;28;20204;-71
2021/08/10 19:30:40;;;;;;;8.02;4.18;;;;;;;;;;10477366;28;20239;-69
2021/08/10 19:35:44;;;;;;;7.80;3.30;;;;;;;;;;10478512;28;20192;-69
2021/08/10 19:40:46;;;;;;;7.80;3.75;;;;;;;;;;10471564;28;20216;-70
2021/08/10 19:45:53;;;;;;;8.35;3.28;;;;;;;;;;10476019;28;20189;-72
2021/08/10 19:50:58;;;;;;;9.63;5.50;;;;;;;;;;10477271;28;20690;-71
2021/08/10 19:56:00;;;;;;;7.00;3.30;;;;;;;;;;10473172;28;20280;-71
2021/08/10 20:01:03;;;;;;;8.02;3.65;;;;;;;;;;10482412;28;20220;-71
2021/08/10 20:06:08;;;;;;;8.32;4.43;;;;;;;;;;10479512;28;20196;-71
2021/08/10 20:11:10;;;;;;;9.38;4.78;;;;;;;;;;10479057;28;20209;-71
2021/08/10 20:16:13;;;;;;;8.52;3.78;;;;;;;;;;10480518;28;20200;-71
2021/08/10 20:21:17;;;;;;;8.88;4.25;;;;;;;;;;10477937;28;20208;-71
2021/08/10 20:26:20;;;;;;;9.60;4.30;;;;;;;;;;10481359;28;20613;-70
2021/08/10 20:31:22;;;;;;;9.73;3.87;;;;;;;;;;10484026;28;20299;-71
2021/08/10 20:36:27;;;;;;;9.57;4.47;;;;;;;;;;10486484;28;20692;-69
2021/08/10 20:41:29;;;;;;;9.77;4.00;;;;;;;;;;10484581;28;20208;-70
2021/08/10 20:46:32;;;;;;;6.70;3.40;;;;;;;;;;10480838;28;20216;-69
2021/08/10 20:51:36;;;;;;;10.23;4.77;;;;;;;;;;10476283;28;20216;-74
2021/08/10 20:56:38;;;;;;;10.00;5.30;;;;;;;;;;10485090;28;20200;-70
2021/08/10 21:01:41;;;;;;;8.57;4.30;;;;;;;;;;10484072;28;20266;-72
2021/08/10 21:06:45;;;;;;;7.57;4.00;;;;;;;;;;10479032;28;20200;-71
2021/08/10 21:11:48;;;;;;;8.30;4.20;;;;;;;;;;10475300;28;20253;-70
2021/08/10 21:16:50;;;;;;;13.47;8.77;;;;;;;;;;10461194;28;20307;-72
2021/08/10 21:21:54;;;;;;;22.60;16.07;;;;;;;;;;10480772;28;20227;-73
2021/08/10 21:26:57;;;;;;;16.47;5.37;;;;;;;;;;10473932;28;20177;-71
2021/08/10 21:31:59;;;;;;;8.90;4.00;;;;;;;;;;10483525;28;20213;-70
2021/08/10 21:37:04;;;;;;;9.93;5.30;;;;;;;;;;10480562;28;20234;-72
2021/08/10 21:42:06;;;;;;;11.63;6.73;;;;;;;;;;10474292;28;20204;-72
2021/08/10 21:47:09;;;;;;;9.57;4.33;;;;;;;;;;10486017;28;20234;-72
2021/08/10 21:52:13;;;;;;;11.53;5.80;;;;;;;;;;10474789;28;20220;-73
2021/08/10 21:57:15;;;;;;;9.13;4.40;;;;;;;;;;10476098;28;20197;-71
2021/08/10 22:02:18;;;;;;;10.90;4.00;;;;;;;;;;10479919;28;20636;-71
2021/08/10 22:07:22;;;;;;;9.47;4.10;;;;;;;;;;10477304;28;20228;-71
2021/08/10 22:12:25;;;;;;;8.50;3.93;;;;;;;;;;10480053;28;20241;-71
2021/08/10 22:17:27;;;;;;;7.70;4.17;;;;;;;;;;10472834;28;20250;-71
2021/08/10 22:22:31;;;;;;;8.83;4.00;;;;;;;;;;10475122;28;20227;-70
2021/08/10 22:27:35;;;;;;;8.60;4.10;;;;;;;;;;10474327;28;20554;-70
2021/08/10 22:32:39;;;;;;;10.23;4.33;;;;;;;;;;10471199;28;20287;-69
2021/08/10 22:37:43;;;;;;;9.33;4.70;;;;;;;;;;10468162;28;20216;-69
2021/08/10 22:42:45;;;;;;;7.90;4.00;;;;;;;;;;10465175;28;20224;-70
2021/08/10 22:47:48;;;;;;;11.20;4.90;;;;;;;;;;10471899;28;20220;-70
2021/08/10 22:52:52;;;;;;;11.00;4.73;;;;;;;;;;10472435;28;20235;-71
2021/08/10 22:57:55;;;;;;;8.97;4.37;;;;;;;;;;10469408;28;20216;-73
2021/08/10 23:02:58;;;;;;;9.40;4.67;;;;;;;;;;10474536;28;20311;-72
2021/08/10 23:08:03;;;;;;;7.60;3.87;;;;;;;;;;10468878;28;20585;-72
2021/08/10 23:13:05;;;;;;;9.40;4.27;;;;;;;;;;10476324;28;20692;-71
2021/08/10 23:18:09;;;;;;;8.53;4.83;;;;;;;;;;10478001;28;20278;-71
2021/08/10 23:23:14;;;;;;;8.17;4.63;;;;;;;;;;10475615;28;20680;-72
2021/08/10 23:28:16;;;;;;;8.53;4.50;;;;;;;;;;10472323;28;20293;-71
2021/08/10 23:33:19;;;;;;;10.27;4.33;;;;;;;;;;10467388;28;20225;-72
2021/08/10 23:38:23;;;;;;;9.23;4.17;;;;;;;;;;10473442;28;20224;-71
2021/08/10 23:43:25;;;;;;;8.03;4.23;;;;;;;;;;10474298;28;20263;-71
2021/08/10 23:48:28;;;;;;;11.30;4.80;;;;;;;;;;10472321;28;20295;-71
2021/08/10 23:53:32;;;;;;;8.53;4.47;;;;;;;;;;10488134;28;20272;-70
2021/08/10 23:58:34;;;;;;;8.80;4.00;;;;;;;;;;10484714;28;20224;-72
